Latest Weather Observations for Nullarbor

IDS60801

Issued at 7:05 am CST Sunday 21 September 2014 (issued every 30 minutes, with the page automatically refreshed every 10 minutes)

About weather observations | Map of weather stations | Latest weather observations for SA | Other Formats
Station Details ID: 018106 Name: NULLARBOR Lat: -31.45 Lon: 130.90 Height: 64.0 m
Data from the previous 72 hours. | See also: Recent months at Nullarbor
Date/Time
CST
Temp
°C
App
Temp
°C
Dew
Point
Rel
Hum
%
Delta-T
°C
Wind Press
QNH
hPa
Press
MSL
hPa
Rain
since 9 am
mm
Dir
 
Spd
km/h
Gust
km/h
Spd
kts
Gust
kts
21/07:00am 10.3 5.5 7.5 83 1.3 NE 22 28 12 15 1023.7 1023.6 0.2
21/06:30am 9.8 4.8 8.2 90 0.8 NE 24 30 13 16 1023.3 1023.2 0.2
21/06:00am 9.5 5.6 9.4 99 0.0 ENE 20 24 11 13 1022.9 1022.9 0.2
21/05:30am 8.4 4.8 8.3 99 0.0 ENE 17 19 9 10 1022.7 1022.7 0.2
21/05:00am 8.2 4.9 8.1 99 0.0 E 15 17 8 9 1022.6 1022.6 0.0
21/04:30am 9.5 6.2 9.5 100 0.0 E 17 19 9 10 1022.4 1022.4 0.0
21/04:27am 9.5 6.2 9.5 100 0.0 E 17 19 9 10 1022.4 1022.4 0.0
21/04:00am 7.0 3.8 6.9 99 0.0 E 13 17 7 9 1022.5 1022.5 0.0
21/03:30am 6.9 3.3 6.8 99 0.0 E 15 17 8 9 1022.7 1022.7 0.0
21/03:00am 8.0 5.4 7.9 99 0.0 E 11 13 6 7 1022.9 1022.9 0.0
21/02:30am 8.4 5.5 8.3 99 0.0 ESE 13 13 7 7 1023.1 1023.0 0.0
21/02:00am 9.7 7.6 9.6 99 0.1 SE 11 13 6 7 1023.5 1023.4 0.0
21/01:30am 10.0 7.6 9.9 99 0.1 ESE 13 13 7 7 1023.9 1023.8 0.0
21/01:04am 10.7 8.8 10.5 99 0.1 SE 11 13 6 7 1024.1 1024.0 0.0
21/01:00am 10.7 8.8 10.5 99 0.1 SE 11 13 6 7 1024.1 1024.0 0.0
21/12:30am 11.7 9.3 11.5 99 0.1 SE 15 17 8 9 1024.3 1024.2 0.0
21/12:00am 11.7 8.9 11.5 99 0.1 SE 17 17 9 9 1024.5 1024.4 0.0
 
Date/Time
CST
Temp
°C
App
Temp
°C
Dew
Point
Rel
Hum
%
Delta-T
°C
Wind Press
QNH
hPa
Press
MSL
hPa
Rain
since 9 am
mm
Dir
 
Spd
km/h
Gust
km/h
Spd
kts
Gust
kts
20/11:30pm 12.0 9.7 11.8 99 0.1 SE 15 17 8 9 1024.5 1024.4 0.0
20/11:00pm 12.4 10.2 12.2 99 0.1 SE 15 17 8 9 1024.6 1024.5 0.0
20/10:30pm 12.6 10.4 12.1 97 0.3 SE 15 17 8 9 1024.7 1024.6 0.0
20/10:00pm 12.7 10.4 11.9 95 0.4 SE 15 19 8 10 1024.7 1024.6 0.0
20/09:30pm 12.7 10.0 11.6 93 0.6 SE 17 19 9 10 1024.4 1024.3 0.0
20/09:00pm 12.7 9.8 11.1 90 0.8 SSE 17 20 9 11 1024.3 1024.2 0.0
20/08:30pm 13.1 10.3 11.2 88 1.0 SSE 17 22 9 12 1024.2 1024.1 0.0
20/08:00pm 13.2 10.2 10.7 85 1.3 SSE 17 19 9 10 1024.0 1023.9 0.0
20/07:30pm 13.8 10.8 10.8 82 1.6 SSE 17 20 9 11 1023.7 1023.6 0.0
20/07:00pm 14.4 11.2 11.2 81 1.7 SSE 19 24 10 13 1023.5 1023.4 0.0
20/06:30pm 15.3 11.2 11.5 78 2.0 SSE 24 32 13 17 1023.3 1023.2 0.0
20/06:00pm 16.1 11.4 10.8 71 2.8 SSE 26 32 14 17 1022.9 1022.9 0.0
20/05:30pm 17.0 12.3 10.8 67 3.3 S 26 32 14 17 1022.7 1022.7 0.0
20/05:00pm 17.7 12.6 9.3 58 4.4 SSE 26 32 14 17 1022.5 1022.5 0.0
20/04:30pm 18.4 13.6 8.9 54 4.9 SSE 24 33 13 18 1022.2 1022.2 0.0
20/04:00pm 18.9 13.6 8.3 50 5.5 SSE 26 32 14 17 1022.1 1022.1 0.0
20/03:30pm 19.6 14.1 7.4 45 6.2 SSE 26 37 14 20 1021.9 1021.9 0.0
20/03:00pm 19.6 14.2 8.0 47 6.0 SSE 26 32 14 17 1021.9 1021.9 0.0
20/02:30pm 19.7 14.6 7.8 46 6.1 SSE 24 32 13 17 1022.2 1022.2 0.0
20/02:00pm 20.0 14.7 6.7 42 6.7 SSE 24 32 13 17 1022.5 1022.5 0.0
20/01:30pm 20.7 15.3 6.3 39 7.2 SE 24 35 13 19 1022.8 1022.8 0.0
20/01:00pm 20.4 14.2 6.0 39 7.2 SSE 28 39 15 21 1022.9 1022.9 0.0
20/12:30pm 20.2 13.7 4.7 36 7.5 SSE 28 41 15 22 1023.4 1023.3 0.0
20/12:00pm 20.7 14.0 3.9 33 8.0 SSE 28 35 15 19 1023.7 1023.6 0.0
20/11:30am 20.0 13.6 5.3 38 7.2 SSE 28 37 15 20 1024.0 1023.9 0.0
20/11:00am 20.5 14.1 3.3 32 8.2 SSE 26 35 14 19 1024.1 1024.0 0.0
20/10:30am 20.1 14.4 2.9 32 8.0 S 22 32 12 17 1024.1 1024.0 0.0
20/10:00am 19.3 15.4 7.1 45 6.2 SE 17 22 9 12 1024.3 1024.2 0.0
20/09:30am 18.1 14.8 9.7 58 4.4 SE 17 24 9 13 1024.2 1024.1 0.0
20/09:00am 17.5 14.4 11.5 68 3.3 SE 19 26 10 14 1024.2 1024.1 0.0
20/08:30am 16.2 13.2 12.4 78 2.1 SSE 20 26 11 14 1023.9 1023.8 0.0
20/08:00am 14.8 13.1 14.6 99 0.1 SSE 17 22 9 12 1023.8 1023.7 0.0
20/07:30am 12.2 10.4 12.2 100 0.0 S 13 15 7 8 1023.5 1023.4 0.0
20/07:29am 12.0 10.2 12.0 100 0.0 S 13 15 7 8 1023.5 1023.4 0.0
20/07:00am 9.4 6.8 9.3 99 0.0 S 13 13 7 7 1023.1 1023.0 0.0
20/06:30am 9.2 6.2 9.1 99 0.0 S 15 19 8 10 1022.7 1022.7 0.0
20/06:00am 8.6 6.2 8.5 99 0.0 S 11 15 6 8 1022.3 1022.3 0.0
20/05:31am 10.2 7.8 10.0 99 0.1 S 13 17 7 9 1021.9 1021.9 0.0
20/05:30am 10.2 7.8 10.0 99 0.1 S 13 15 7 8 1021.8 1021.8 0.0
20/05:00am 11.1 8.2 10.9 99 0.1 S 17 19 9 10 1021.4 1021.4 0.0
20/04:30am 10.3 7.1 10.1 99 0.1 S 17 19 9 10 1021.0 1021.0 0.0
20/04:00am 10.3 7.1 10.1 99 0.1 S 17 19 9 10 1020.7 1020.7 0.0
20/03:30am 9.3 5.8 8.7 96 0.3 S 17 19 9 10 1020.6 1020.6 0.0
20/03:00am 9.2 5.4 7.6 90 0.8 SSW 17 19 9 10 1020.5 1020.5 0.0
20/02:30am 8.7 5.3 5.8 82 1.3 S 13 19 7 10 1020.6 1020.6 0.0
20/02:00am 8.8 5.8 6.1 83 1.2 SSW 11 13 6 7 1020.9 1020.9 0.0
20/01:30am 9.2 8.3 6.1 81 1.4 CALM 0 2 0 1 1020.6 1020.6 0.0
20/01:00am 10.0 9.2 6.5 79 1.6 CALM 0 0 0 0 1020.5 1020.5 0.0
20/12:30am 10.9 9.0 6.8 76 1.9 SSW 6 13 3 7 1020.6 1020.6 0.0
20/12:00am 10.9 8.0 6.3 73 2.2 ESE 11 17 6 9 1020.6 1020.6 0.0
 
Date/Time
CST
Temp
°C
App
Temp
°C
Dew
Point
Rel
Hum
%
Delta-T
°C
Wind Press
QNH
hPa
Press
MSL
hPa
Rain
since 9 am
mm
Dir
 
Spd
km/h
Gust
km/h
Spd
kts
Gust
kts
19/11:30pm 13.0 9.8 6.8 66 3.0 E 13 13 7 7 1020.9 1020.9 0.0
19/11:00pm 14.2 11.0 8.4 68 2.9 E 15 20 8 11 1021.0 1021.0 0.0
19/10:30pm 14.0 10.9 10.4 79 1.9 E 17 20 9 11 1021.1 1021.1 0.0
19/10:00pm 13.9 10.4 10.1 78 2.0 ESE 19 22 10 12 1021.2 1021.2 0.0
19/09:30pm 14.1 10.7 9.3 73 2.4 SE 17 20 9 11 1021.3 1021.3 0.0
19/09:00pm 15.1 11.1 9.0 67 3.1 ESE 20 28 11 15 1020.7 1020.7 0.0
19/08:30pm 15.6 10.6 8.1 61 3.8 ESE 24 30 13 16 1020.6 1020.6 0.0
19/08:00pm 15.3 10.4 8.5 64 3.5 ESE 24 33 13 18 1020.3 1020.3 0.0
19/07:30pm 15.2 10.6 9.6 69 2.9 SE 24 32 13 17 1020.1 1020.1 0.0
19/07:00pm 15.7 10.8 9.8 68 3.1 SE 26 35 14 19 1020.1 1020.1 0.0
19/06:30pm 16.3 11.0 9.7 65 3.4 SE 28 35 15 19 1020.0 1020.0 0.0
19/06:00pm 17.3 10.8 9.0 58 4.3 SE 33 43 18 23 1019.6 1019.6 0.0
19/05:30pm 18.1 11.5 7.8 51 5.2 SSE 32 41 17 22 1019.3 1019.3 0.0
19/05:00pm 18.5 11.5 7.0 47 5.8 SE 33 41 18 22 1018.7 1018.7 0.0
19/04:30pm 20.7 13.3 6.6 40 7.1 SE 35 41 19 22 1018.6 1018.6 0.0
19/04:00pm 21.4 14.5 6.5 38 7.6 SE 32 39 17 21 1018.3 1018.3 0.0
19/03:30pm 22.5 15.9 5.9 34 8.4 SE 30 35 16 19 1018.3 1018.3 0.0
19/03:00pm 21.9 15.3 6.2 36 7.9 SE 30 35 16 19 1018.6 1018.6 0.0
19/02:30pm 23.3 17.3 5.2 31 9.1 SE 26 33 14 18 1018.6 1018.6 0.0
19/02:00pm 23.8 17.9 5.7 31 9.2 ESE 26 37 14 20 1018.6 1018.6 0.0
19/01:30pm 23.4 17.9 5.8 32 8.9 ESE 24 32 13 17 1019.4 1019.4 0.0
19/01:00pm 24.2 19.2 3.5 26 10.1 ENE 19 30 10 16 1019.7 1019.7 0.0
19/12:30pm 24.0 19.4 3.9 27 9.9 ENE 17 26 9 14 1020.1 1020.1 0.0
19/12:00pm 23.2 18.6 3.7 28 9.5 ENE 17 32 9 17 1020.7 1020.7 0.0
19/11:30am 21.4 16.0 2.6 29 8.8 NE 20 30 11 16 1021.2 1021.2 0.0
19/11:00am 21.7 16.0 2.9 29 8.9 ENE 22 32 12 17 1021.5 1021.5 0.0
19/10:30am 20.3 15.0 3.1 32 8.1 NE 20 28 11 15 1022.3 1022.3 0.0
19/10:00am 18.6 13.7 4.0 38 6.9 NE 19 22 10 12 1022.7 1022.7 0.0
19/09:30am 16.4 12.0 4.8 46 5.5 NE 17 22 9 12 1022.9 1022.9 0.0
19/09:00am 13.5 9.5 4.9 56 4.0 NE 15 19 8 10 1023.2 1023.1 0.0
19/08:30am 12.4 7.6 4.9 60 3.4 ENE 19 24 10 13 1022.8 1022.8 0.0
19/08:00am 10.4 6.9 5.4 71 2.3 E 13 20 7 11 1022.4 1022.4 0.0
19/07:30am 8.0 4.4 4.9 81 1.4 E 13 15 7 8 1022.1 1022.1 0.0
19/07:00am 6.4 2.3 4.6 88 0.8 E 15 17 8 9 1022.0 1022.0 0.0
19/06:30am 5.6 1.4 3.9 89 0.7 E 15 17 8 9 1021.8 1021.8 0.0
19/06:00am 5.6 1.4 3.9 89 0.7 E 15 17 8 9 1021.7 1021.7 0.0
19/05:30am 5.7 1.5 3.7 87 0.8 E 15 17 8 9 1021.4 1021.4 0.0
19/05:00am 6.0 2.2 3.7 85 1.0 E 13 15 7 8 1021.3 1021.3 0.0
19/04:30am 7.0 2.9 4.3 83 1.2 E 15 17 8 9 1021.2 1021.2 0.0
19/04:00am 7.3 3.2 4.4 82 1.3 E 15 19 8 10 1021.1 1021.1 0.0
19/03:30am 7.6 3.2 4.9 83 1.2 E 17 20 9 11 1021.3 1021.3 0.0
19/03:00am 7.9 3.9 5.0 82 1.3 E 15 17 8 9 1021.5 1021.5 0.0
19/02:30am 8.6 4.3 5.2 79 1.5 E 17 20 9 11 1021.6 1021.6 0.0
19/02:00am 9.1 4.8 5.3 77 1.7 E 17 20 9 11 1022.0 1022.0 0.0
19/01:30am 9.8 5.3 6.0 77 1.7 E 19 22 10 12 1022.1 1022.1 0.0
19/01:00am 10.3 5.9 6.5 77 1.8 E 19 22 10 12 1022.2 1022.2 0.0
19/12:30am 11.2 5.9 6.9 75 2.0 E 24 32 13 17 1022.4 1022.4 0.0
19/12:00am 11.7 6.6 7.8 77 1.9 ESE 24 33 13 18 1022.5 1022.5 0.0
 
Date/Time
CST
Temp
°C
App
Temp
°C
Dew
Point
Rel
Hum
%
Delta-T
°C
Wind Press
QNH
hPa
Press
MSL
hPa
Rain
since 9 am
mm
Dir
 
Spd
km/h
Gust
km/h
Spd
kts
Gust
kts
18/11:30pm 12.0 7.0 7.9 76 2.0 ESE 24 32 13 17 1022.7 1022.7 0.0
18/11:00pm 12.1 7.0 7.8 75 2.1 ESE 24 30 13 16 1023.1 1023.0 0.0
18/10:30pm 12.3 8.0 8.0 75 2.1 ESE 20 26 11 14 1023.4 1023.3 0.0
18/10:00pm 12.4 7.7 7.9 74 2.2 ESE 22 30 12 16 1023.4 1023.3 0.0
18/09:30pm 12.9 8.2 9.2 78 1.9 ESE 24 30 13 16 1023.4 1023.3 0.0
18/09:00pm 13.1 8.5 9.7 80 1.7 ESE 24 28 13 15 1023.6 1023.5 0.0
18/08:30pm 13.1 8.8 9.5 79 1.8 ESE 22 30 12 16 1023.3 1023.2 0.0
18/08:00pm 13.2 9.3 9.5 78 1.9 SE 20 28 11 15 1023.2 1023.1 0.0
18/07:30pm 13.3 9.0 9.5 78 1.9 SE 22 26 12 14 1023.1 1023.0 0.0
18/07:00pm 13.8 10.2 9.8 77 2.1 ESE 19 24 10 13 1022.9 1022.9 0.0
18/06:30pm 14.6 10.0 9.8 73 2.5 SE 24 32 13 17 1022.6 1022.6 0.0
18/06:00pm 15.6 10.1 9.3 66 3.2 SE 28 33 15 18 1022.4 1022.4 0.0
18/05:30pm 16.7 11.4 8.4 58 4.2 SE 26 32 14 17 1022.3 1022.3 0.0
18/05:00pm 18.1 14.0 7.8 51 5.3 ESE 19 26 10 14 1022.0 1022.0 0.0
18/04:30pm 19.5 15.0 6.3 42 6.6 ESE 19 26 10 14 1021.9 1021.9 0.0
18/04:00pm 19.5 14.9 6.6 43 6.5 SE 20 26 11 14 1022.0 1022.0 0.0
18/03:30pm 19.5 15.1 6.6 43 6.5 SE 19 28 10 15 1022.4 1022.4 0.0
18/03:00pm 19.5 16.9 4.4 37 7.2 SSE 7 17 4 9 1022.9 1022.9 0.0
18/02:30pm 18.8 15.0 5.6 42 6.4 SE 15 20 8 11 1023.1 1023.0 0.0
18/02:00pm 18.0 14.3 6.2 46 5.8 ESE 15 22 8 12 1023.6 1023.5 0.0
18/01:30pm 17.1 12.4 6.0 48 5.4 ESE 20 26 11 14 1023.5 1023.4 0.0
18/01:00pm 17.6 13.7 5.2 44 6.0 E 15 22 8 12 1023.9 1023.8 0.0
18/12:30pm 17.5 14.8 5.8 46 5.7 ENE 9 20 5 11 1025.0 1024.9 0.0
18/12:00pm 16.2 12.8 5.8 50 5.0 SSE 13 20 7 11 1025.2 1025.1 0.0
18/11:30am 13.9 10.3 4.8 54 4.2 ESE 13 20 7 11 1025.6 1025.5 0.0
18/11:00am 13.4 11.5 5.1 57 3.9 E 4 11 2 6 1025.8 1025.7 0.0
18/10:30am 12.8 8.9 5.2 60 3.5 ENE 15 19 8 10 1025.1 1025.0 0.0
18/10:00am 12.3 8.8 5.5 63 3.2 E 13 19 7 10 1025.4 1025.3 0.0
18/09:30am 12.1 7.4 5.9 66 2.9 E 20 28 11 15 1025.2 1025.1 0.0
18/09:00am 11.5 7.5 6.6 72 2.3 E 17 19 9 10 1025.6 1025.5 0.0
18/08:30am 11.1 8.6 6.6 74 2.1 E 9 11 5 6 1026.6 1026.5 0.0
18/08:00am 10.7 7.5 6.8 77 1.8 ESE 13 17 7 9 1025.8 1025.7 0.0
18/07:30am 10.1 6.1 6.8 80 1.5 ESE 17 22 9 12 1024.9 1024.8 0.0

Other Formats:

Comma delimited format used in spreadsheet applications
http://www.bom.gov.au/fwo/IDS60801/IDS60801.94651.axf

JavaScript Object Notation format (JSON) in row-major order
http://www.bom.gov.au/fwo/IDS60801/IDS60801.94651.json